Time;durP1;ratioP1;P1;durP2;ratioP2;P2;SDS_P1;SDS_P2;PMS_P1;PMS_P2;Temp;Humidity;BMP_temperature;BMP_pressure;BME280_temperature;BME280_humidity;BME280_pressure;Samples;Min_cycle;Max_cycle;Signal;HPM_P1;HPM_P2
2022/08/07 00:03:45;;;;;;;;;;;;;;;;;;5074886;28;6748;-55
2022/08/07 00:06:10;;;;;;;;;;;;;;;;;;5071465;28;7022;-48
2022/08/07 00:08:36;;;;;;;;;;;;;;;;;;5074192;28;7369;-51
2022/08/07 00:11:02;;;;;;;;;;;;;;;;;;5074235;28;6957;-52
2022/08/07 00:13:49;;;;;;;;;;;;;;;;;;5075311;28;6956;-50
2022/08/07 00:22:20;;;;;;;;;;;;;;;;;;5074566;28;6919;-54
2022/08/07 00:27:50;;;;;;;;;;;;;;;;;;5074363;28;6926;-55
2022/08/07 00:30:16;;;;;;;;;;;;;;;;;;5074333;28;6991;-51
2022/08/07 00:32:42;;;;;;;;;;;;;;;;;;5074304;28;7180;-53
2022/08/07 00:38:11;;;;;;;;;;;;;;;;;;5073891;28;6684;-53
2022/08/07 00:40:37;;;;;;;;;;;;;;;;;;5074242;28;7363;-53
2022/08/07 00:46:05;;;;;;;;;;;;;;;;;;5073773;28;6687;-56
2022/08/07 00:51:36;;;;;;;;;;;;;;;;;;5073916;28;6716;-54
2022/08/07 00:54:02;;;;;;;;;;;;;;;;;;5074193;28;7144;-53
2022/08/07 00:56:28;;;;;;;;;;;;;;;;;;5074088;28;7156;-55
2022/08/07 01:05:05;;;;;;;;;;;;;;;;;;5077420;28;6948;-58
2022/08/07 01:07:31;;;;;;;;;;;;;;;;;;5073545;28;7194;-58
2022/08/07 01:10:19;;;;;;;;;;;;;;;;;;5077233;28;7141;-58
2022/08/07 01:12:46;;;;;;;;;;;;;;;;;;5077633;28;7049;-58
2022/08/07 01:27:24;;;;;;;;;;;;;;;;;;5077158;28;6732;-58
2022/08/07 01:29:50;;;;;;;;;;;;;;;;;;5077170;28;6934;-58
2022/08/07 01:32:16;;;;;;;;;;;;;;;;;;5077050;28;7080;-58
2022/08/07 01:34:44;;;;;;;;;;;;;;;;;;5077091;28;7708;-58
2022/08/07 01:37:15;;;;;;;;;;;;;;;;;;5076503;28;8147;-58
2022/08/07 01:42:50;;;;;;;;;;;;;;;;;;5076693;28;6716;-58
2022/08/07 01:45:20;;;;;;;;;;;;;;;;;;5076469;28;6835;-55
2022/08/07 01:47:55;;;;;;;;;;;;;;;;;;5076645;28;8379;-55
2022/08/07 01:56:22;;;;;;;;;;;;;;;;;;5076774;28;7106;-52
2022/08/07 01:59:01;;;;;;;;;;;;;;;;;;5076668;28;7421;-53
2022/08/07 02:01:31;;;;;;;;;;;;;;;;;;5076443;28;7289;-51
2022/08/07 02:07:02;;;;;;;;;;;;;;;;;;5074080;28;6925;-53
2022/08/07 02:12:34;;;;;;;;;;;;;;;;;;5076173;28;6928;-54
2022/08/07 02:18:04;;;;;;;;;;;;;;;;;;5076083;28;6982;-53
2022/08/07 02:20:52;;;;;;;;;;;;;;;;;;5077188;28;7062;-51
2022/08/07 02:23:19;;;;;;;;;;;;;;;;;;5076200;28;7032;-55
2022/08/07 02:25:46;;;;;;;;;;;;;;;;;;5076721;28;7114;-51
2022/08/07 02:28:14;;;;;;;;;;;;;;;;;;5076029;28;6938;-54
2022/08/07 02:30:41;;;;;;;;;;;;;;;;;;5076081;28;7401;-49
2022/08/07 02:33:22;;;;;;;;;;;;;;;;;;5075753;28;7216;-55
2022/08/07 02:35:49;;;;;;;;;;;;;;;;;;5076037;28;7029;-54
2022/08/07 02:38:17;;;;;;;;;;;;;;;;;;5075933;28;7137;-55
2022/08/07 02:41:04;;;;;;;;;;;;;;;;;;5075874;28;7042;-53
2022/08/07 02:43:33;;;;;;;;;;;;;;;;;;5075524;28;7383;-55
2022/08/07 02:49:03;;;;;;;;;;;;;;;;;;5075237;28;6692;-52
2022/08/07 02:51:31;;;;;;;;;;;;;;;;;;5075758;28;7430;-52
2022/08/07 02:54:18;;;;;;;;;;;;;;;;;;5075617;28;6948;-52
2022/08/07 02:56:46;;;;;;;;;;;;;;;;;;5075279;28;7216;-55
2022/08/07 02:59:17;;;;;;;;;;;;;;;;;;5075429;28;6948;-52
2022/08/07 03:01:44;;;;;;;;;;;;;;;;;;5075336;28;6969;-54
2022/08/07 03:04:22;;;;;;;;;;;;;;;;;;5075578;28;7028;-52
2022/08/07 03:06:49;;;;;;;;;;;;;;;;;;5074590;28;7357;-54
2022/08/07 03:09:17;;;;;;;;;;;;;;;;;;5075005;28;7229;-54
2022/08/07 03:11:44;;;;;;;;;;;;;;;;;;5075327;28;7412;-53
2022/08/07 03:14:26;;;;;;;;;;;;;;;;;;5074885;28;7003;-53
2022/08/07 03:16:52;;;;;;;;;;;;;;;;;;5075148;28;7259;-54
2022/08/07 03:19:18;;;;;;;;;;;;;;;;;;5074983;28;7319;-54
2022/08/07 03:21:55;;;;;;;;;;;;;;;;;;5075168;28;7172;-52
2022/08/07 03:24:21;;;;;;;;;;;;;;;;;;5074626;28;7940;-54
2022/08/07 03:26:50;;;;;;;;;;;;;;;;;;5074876;28;7156;-53
2022/08/07 03:29:18;;;;;;;;;;;;;;;;;;5074586;28;6997;-53
2022/08/07 03:31:45;;;;;;;;;;;;;;;;;;5074815;28;7385;-54
2022/08/07 03:34:13;;;;;;;;;;;;;;;;;;5074741;28;6955;-52
2022/08/07 03:37:12;;;;;;;;;;;;;;;;;;5074670;28;7017;-54
2022/08/07 03:39:39;;;;;;;;;;;;;;;;;;5074699;28;7384;-55
2022/08/07 03:42:06;;;;;;;;;;;;;;;;;;5074865;28;7413;-52
2022/08/07 03:44:36;;;;;;;;;;;;;;;;;;5075340;28;6954;-50
2022/08/07 03:50:07;;;;;;;;;;;;;;;;;;5074466;28;6968;-51
2022/08/07 04:01:43;;;;;;;;;;;;;;;;;;5074395;28;6708;-55
2022/08/07 04:04:09;;;;;;;;;;;;;;;;;;5074747;28;7171;-54
2022/08/07 04:06:39;;;;;;;;;;;;;;;;;;5074491;28;7273;-53
2022/08/07 04:09:16;;;;;;;;;;;;;;;;;;5074485;28;7308;-55
2022/08/07 04:11:43;;;;;;;;;;;;;;;;;;5075351;28;6991;-54
2022/08/07 04:14:09;;;;;;;;;;;;;;;;;;5074501;28;6990;-52
2022/08/07 04:19:26;;;;;;;;;;;;;;;;;;5074468;28;6916;-54
2022/08/07 04:21:52;;;;;;;;;;;;;;;;;;5074436;28;7152;-53
2022/08/07 04:27:28;;;;;;;;;;;;;;;;;;5074257;28;6943;-55
2022/08/07 04:29:55;;;;;;;;;;;;;;;;;;5074653;28;7144;-55
2022/08/07 04:32:33;;;;;;;;;;;;;;;;;;5074320;28;7228;-55
2022/08/07 04:35:00;;;;;;;;;;;;;;;;;;5074171;28;7391;-54
2022/08/07 04:37:37;;;;;;;;;;;;;;;;;;5075781;28;7124;-51
2022/08/07 04:40:03;;;;;;;;;;;;;;;;;;5078271;28;7166;-52
2022/08/07 04:42:30;;;;;;;;;;;;;;;;;;5078128;28;7049;-54
2022/08/07 04:54:05;;;;;;;;;;;;;;;;;;5078059;28;6987;-54
2022/08/07 04:56:43;;;;;;;;;;;;;;;;;;5078165;28;7152;-55
2022/08/07 04:59:18;;;;;;;;;;;;;;;;;;5077794;28;7230;-54
2022/08/07 05:04:36;;;;;;;;;;;;;;;;;;5077911;28;6989;-53
2022/08/07 05:07:27;;;;;;;;;;;;;;;;;;5076051;28;7373;-54
2022/08/07 05:10:15;;;;;;;;;;;;;;;;;;5077571;28;7130;-55
2022/08/07 05:12:44;;;;;;;;;;;;;;;;;;5077597;28;8166;-54
2022/08/07 05:15:30;;;;;;;;;;;;;;;;;;5073363;28;7124;-54
2022/08/07 05:18:04;;;;;;;;;;;;;;;;;;5076537;28;7280;-54
2022/08/07 05:20:40;;;;;;;;;;;;;;;;;;5077080;28;7205;-49
2022/08/07 05:23:10;;;;;;;;;;;;;;;;;;5076643;28;6978;-53
2022/08/07 05:26:05;;;;;;;;;;;;;;;;;;5077045;28;6820;-53
2022/08/07 05:28:34;;;;;;;;;;;;;;;;;;5076459;28;6955;-51
2022/08/07 05:33:53;;;;;;;;;;;;;;;;;;5076989;28;7025;-53
2022/08/07 05:36:27;;;;;;;;;;;;;;;;;;5076488;28;7184;-50
2022/08/07 05:38:54;;;;;;;;;;;;;;;;;;5076804;28;6930;-50
2022/08/07 05:41:22;;;;;;;;;;;;;;;;;;5075790;28;7219;-53
2022/08/07 05:43:48;;;;;;;;;;;;;;;;;;5076978;28;6967;-52
2022/08/07 05:46:25;;;;;;;;;;;;;;;;;;5076582;28;7104;-48
2022/08/07 05:48:51;;;;;;;;;;;;;;;;;;5056215;28;7019;-51
2022/08/07 05:51:48;;;;;;;;;;;;;;;;;;5056556;28;7221;-53
2022/08/07 05:54:16;;;;;;;;;;;;;;;;;;5056699;28;7150;-51
2022/08/07 05:59:48;;;;;;;;;;;;;;;;;;5056249;28;6931;-52
2022/08/07 06:02:16;;;;;;;;;;;;;;;;;;5056335;28;7075;-54
2022/08/07 06:05:11;;;;;;;;;;;;;;;;;;5056570;28;7242;-54
2022/08/07 06:14:04;;;;;;;;;;;;;;;;;;5076396;28;7081;-53
2022/08/07 06:16:34;;;;;;;;;;;;;;;;;;5055884;28;8013;-50
2022/08/07 06:19:17;;;;;;;;;;;;;;;;;;5056217;28;7036;-51
2022/08/07 06:21:44;;;;;;;;;;;;;;;;;;5055880;28;7150;-53
2022/08/07 06:24:35;;;;;;;;;;;;;;;;;;5056015;28;7577;-51
2022/08/07 06:27:01;;;;;;;;;;;;;;;;;;5056001;28;6814;-55
2022/08/07 06:29:36;;;;;;;;;;;;;;;;;;5056221;28;6919;-56
2022/08/07 06:32:01;;;;;;;;;;;;;;;;;;5055812;28;7213;-54
2022/08/07 06:37:30;;;;;;;;;;;;;;;;;;5056018;28;6932;-55
2022/08/07 06:40:00;;;;;;;;;;;;;;;;;;5055427;28;7125;-54
2022/08/07 06:42:35;;;;;;;;;;;;;;;;;;5055363;28;6954;-55
2022/08/07 06:45:06;;;;;;;;;;;;;;;;;;5070853;28;7263;-49
2022/08/07 06:47:35;;;;;;;;;;;;;;;;;;5055029;28;8384;-50
2022/08/07 06:50:01;;;;;;;;;;;;;;;;;;5055012;28;7493;-54
2022/08/07 06:55:25;;;;;;;;;;;;;;;;;;5055948;28;7054;-53
2022/08/07 06:57:58;;;;;;;;;;;;;;;;;;5055384;28;7114;-54
2022/08/07 07:00:25;;;;;;;;;;;;;;;;;;5054524;28;7395;-54
2022/08/07 07:06:04;;;;;;;;;;;;;;;;;;5054998;28;7062;-54
2022/08/07 07:11:33;;;;;;;;;;;;;;;;;;5074759;28;7249;-52
2022/08/07 07:14:01;;;;;;;;;;;;;;;;;;5075113;28;7173;-53
2022/08/07 07:19:40;;;;;;;;;;;;;;;;;;5074715;28;6717;-58
2022/08/07 07:22:07;;;;;;;;;;;;;;;;;;5075138;28;7135;-58
2022/08/07 07:24:36;;;;;;;;;;;;;;;;;;5074827;28;7373;-58
2022/08/07 07:27:05;;;;;;;;;;;;;;;;;;5074664;28;7067;-57
2022/08/07 07:29:36;;;;;;;;;;;;;;;;;;5074844;28;7268;-58
2022/08/07 07:32:05;;;;;;;;;;;;;;;;;;5074837;28;6844;-58
2022/08/07 07:34:53;;;;;;;;;;;;;;;;;;5074598;28;7935;-58
2022/08/07 07:37:21;;;;;;;;;;;;;;;;;;5075204;28;7078;-58
2022/08/07 07:39:51;;;;;;;;;;;;;;;;;;5074550;28;6960;-58
2022/08/07 07:42:20;;;;;;;;;;;;;;;;;;5074987;28;7134;-58
2022/08/07 07:44:48;;;;;;;;;;;;;;;;;;5074673;28;7258;-58
2022/08/07 07:47:35;;;;;;;;;;;;;;;;;;5074268;28;8354;-58
2022/08/07 07:50:02;;;;;;;;;;;;;;;;;;5074040;28;7331;-58
2022/08/07 07:55:31;;;;;;;;;;;;;;;;;;5074292;28;6685;-58
2022/08/07 07:57:57;;;;;;;;;;;;;;;;;;5074527;28;6931;-57
2022/08/07 08:00:43;;;;;;;;;;;;;;;;;;5073915;28;8228;-58
2022/08/07 08:03:10;;;;;;;;;;;;;;;;;;5073992;28;7151;-58
2022/08/07 08:08:41;;;;;;;;;;;;;;;;;;5073839;28;6962;-58
2022/08/07 08:14:09;;;;;;;;;;;;;;;;;;5078789;28;6974;-58
2022/08/07 08:16:42;;;;;;;;;;;;;;;;;;5078130;28;7123;-58
2022/08/07 08:19:14;;;;;;;;;;;;;;;;;;5078488;28;7534;-58
2022/08/07 08:31:04;;;;;;;;;;;;;;;;;;5077733;28;6995;-57
2022/08/07 08:33:35;;;;;;;;;;;;;;;;;;5078109;28;7222;-57
2022/08/07 08:36:27;;;;;;;;;;;;;;;;;;5077988;28;7194;-57
2022/08/07 08:38:55;;;;;;;;;;;;;;;;;;5074747;28;7427;-57
2022/08/07 08:47:31;;;;;;;;;;;;;;;;;;5077410;28;7057;-57
2022/08/07 08:50:14;;;;;;;;;;;;;;;;;;5075980;28;7439;-57
2022/08/07 08:52:58;;;;;;;;;;;;;;;;;;5076686;28;7210;-57
2022/08/07 08:55:30;;;;;;;;;;;;;;;;;;5076554;28;7158;-57
2022/08/07 08:58:05;;;;;;;;;;;;;;;;;;5077358;28;7098;-57
2022/08/07 09:00:47;;;;;;;;;;;;;;;;;;5077084;28;7202;-57
2022/08/07 09:03:32;;;;;;;;;;;;;;;;;;5077214;28;7138;-57
2022/08/07 09:06:24;;;;;;;;;;;;;;;;;;5077497;28;7389;-57
2022/08/07 09:09:02;;;;;;;;;;;;;;;;;;5076950;28;7117;-57
2022/08/07 09:17:25;;;;;;;;;;;;;;;;;;5077374;28;6997;-57
2022/08/07 09:19:56;;;;;;;;;;;;;;;;;;5076828;28;7650;-57
2022/08/07 09:28:43;;;;;;;;;;;;;;;;;;5076852;28;6881;-50
2022/08/07 09:31:18;;;;;;;;;;;;;;;;;;5076265;28;7001;-55
2022/08/07 09:42:51;;;;;;;;;;;;;;;;;;5077082;28;6995;-57
2022/08/07 10:00:19;;;;;;;;;;;;;;;;;;5076367;28;7104;-56
2022/08/07 10:03:23;;;;;;;;;;;;;;;;;;5076156;28;7246;-57
2022/08/07 10:15:42;;;;;;;;;;;;;;;;;;5073628;28;6761;-54
2022/08/07 10:18:08;;;;;;;;;;;;;;;;;;5055595;28;7246;-55
2022/08/07 10:23:55;;;;;;;;;;;;;;;;;;5064400;28;7095;-57
2022/08/07 10:29:54;;;;;;;;;;;;;;;;;;5075359;28;6980;-57
2022/08/07 10:32:20;;;;;;;;;;;;;;;;;;5075466;28;7817;-56
2022/08/07 10:34:50;;;;;;;;;;;;;;;;;;5074454;28;7172;-57
2022/08/07 10:37:28;;;;;;;;;;;;;;;;;;5075278;28;7152;-57
2022/08/07 10:43:22;;;;;;;;;;;;;;;;;;5055535;28;7000;-57
2022/08/07 10:45:49;;;;;;;;;;;;;;;;;;5055139;28;7273;-57
2022/08/07 10:48:35;;;;;;;;;;;;;;;;;;5055507;28;7018;-57
2022/08/07 10:51:01;;;;;;;;;;;;;;;;;;5054910;28;7091;-57
2022/08/07 10:56:26;;;;;;;;;;;;;;;;;;5095922;28;7068;-57
2022/08/07 10:59:04;;;;;;;;;;;;;;;;;;5078793;28;7490;-57
2022/08/07 11:01:48;;;;;;;;;;;;;;;;;;5075337;28;6988;-57
2022/08/07 11:04:29;;;;;;;;;;;;;;;;;;5074523;28;7099;-57
2022/08/07 11:06:54;;;;;;;;;;;;;;;;;;5088828;28;7132;-57
2022/08/07 11:09:43;;;;;;;;;;;;;;;;;;5095153;28;7193;-57
2022/08/07 11:12:08;;;;;;;;;;;;;;;;;;5095254;28;7230;-57
2022/08/07 11:20:58;;;;;;;;;;;;;;;;;;4969260;28;6776;-57
2022/08/07 11:23:38;;;;;;;;;;;;;;;;;;4954088;29;7224;-58
2022/08/07 11:26:13;;;;;;;;;;;;;;;;;;4953586;28;7018;-57
2022/08/07 11:29:11;;;;;;;;;;;;;;;;;;4953759;29;6966;-59
2022/08/07 11:31:52;;;;;;;;;;;;;;;;;;4974621;28;7540;-56
2022/08/07 11:34:29;;;;;;;;;;;;;;;;;;4954066;29;7211;-56
2022/08/07 11:37:01;;;;;;;;;;;;;;;;;;4953734;29;7297;-57
2022/08/07 11:48:51;;;;;;;;;;;;;;;;;;4915167;29;7071;-57
2022/08/07 11:51:33;;;;;;;;;;;;;;;;;;4915388;28;7460;-55
2022/08/07 12:00:05;;;;;;;;;;;;;;;;;;4953579;28;7105;-56
2022/08/07 12:09:20;;;;;;;;;;;;;;;;;;4957576;28;7086;-56
2022/08/07 12:12:04;;;;;;;;;;;;;;;;;;4953914;29;7159;-56
2022/08/07 12:14:56;;;;;;;;;;;;;;;;;;4937886;29;7059;-56
2022/08/07 12:17:24;;;;;;;;;;;;;;;;;;4951121;29;7244;-56
2022/08/07 12:23:18;;;;;;;;;;;;;;;;;;4973512;28;7004;-57
2022/08/07 12:25:51;;;;;;;;;;;;;;;;;;4973550;28;7157;-55
2022/08/07 12:28:34;;;;;;;;;;;;;;;;;;4973141;28;7502;-55
2022/08/07 12:31:06;;;;;;;;;;;;;;;;;;4972769;28;7031;-55
2022/08/07 12:34:05;;;;;;;;;;;;;;;;;;4928167;28;6984;-55
2022/08/07 12:36:33;;;;;;;;;;;;;;;;;;4877271;29;7048;-53
2022/08/07 12:39:04;;;;;;;;;;;;;;;;;;4877941;29;7447;-55
2022/08/07 12:41:33;;;;;;;;;;;;;;;;;;4877131;29;7130;-51
2022/08/07 12:44:33;;;;;;;;;;;;;;;;;;4876936;29;7870;-56
2022/08/07 12:47:09;;;;;;;;;;;;;;;;;;4876890;29;7427;-54
2022/08/07 12:49:41;;;;;;;;;;;;;;;;;;4876879;29;7091;-56
2022/08/07 12:52:22;;;;;;;;;;;;;;;;;;4876503;29;7285;-56
2022/08/07 12:54:59;;;;;;;;;;;;;;;;;;4877106;29;7237;-56
2022/08/07 12:57:30;;;;;;;;;;;;;;;;;;4877047;29;7485;-52
2022/08/07 13:00:09;;;;;;;;;;;;;;;;;;4879913;29;7263;-55
2022/08/07 13:02:40;;;;;;;;;;;;;;;;;;4880402;29;7291;-56
2022/08/07 13:05:21;;;;;;;;;;;;;;;;;;4880542;29;7445;-55
2022/08/07 13:10:49;;;;;;;;;;;;;;;;;;4880150;29;7009;-56
2022/08/07 13:16:29;;;;;;;;;;;;;;;;;;4880371;29;7094;-56
2022/08/07 13:22:12;;;;;;;;;;;;;;;;;;4861023;29;6796;-56
2022/08/07 13:27:55;;;;;;;;;;;;;;;;;;4861304;29;6771;-53
2022/08/07 13:30:23;;;;;;;;;;;;;;;;;;4874961;29;6933;-55
2022/08/07 13:32:51;;;;;;;;;;;;;;;;;;4880255;29;7239;-54
2022/08/07 13:35:35;;;;;;;;;;;;;;;;;;4879760;29;7372;-56
2022/08/07 13:38:02;;;;;;;;;;;;;;;;;;4879873;29;7391;-53
2022/08/07 13:40:31;;;;;;;;;;;;;;;;;;4879799;29;7316;-54
2022/08/07 13:43:31;;;;;;;;;;;;;;;;;;4879819;29;7189;-55
2022/08/07 13:46:19;;;;;;;;;;;;;;;;;;4896189;29;7066;-52
2022/08/07 13:48:51;;;;;;;;;;;;;;;;;;4885807;28;6990;-56
2022/08/07 13:51:27;;;;;;;;;;;;;;;;;;4879721;29;7225;-57
2022/08/07 13:53:57;;;;;;;;;;;;;;;;;;4879751;29;7178;-57
2022/08/07 13:59:38;;;;;;;;;;;;;;;;;;4897924;29;7121;-57
2022/08/07 14:02:11;;;;;;;;;;;;;;;;;;4879493;29;7526;-56
2022/08/07 14:04:56;;;;;;;;;;;;;;;;;;4879565;29;7283;-57
2022/08/07 14:13:28;;;;;;;;;;;;;;;;;;4879470;29;6893;-58
2022/08/07 14:15:59;;;;;;;;;;;;;;;;;;4882604;29;7114;-58
2022/08/07 14:18:43;;;;;;;;;;;;;;;;;;4897913;28;7205;-57
2022/08/07 14:21:15;;;;;;;;;;;;;;;;;;4911090;29;7208;-62
2022/08/07 14:24:11;;;;;;;;;;;;;;;;;;4916596;29;7109;-55
2022/08/07 14:26:47;;;;;;;;;;;;;;;;;;4954823;28;7201;-57
2022/08/07 14:29:17;;;;;;;;;;;;;;;;;;4954694;28;7203;-61
2022/08/07 14:35:00;;;;;;;;;;;;;;;;;;4955304;28;6895;-57
2022/08/07 14:37:26;;;;;;;;;;;;;;;;;;4936457;29;7229;-62
2022/08/07 14:40:11;;;;;;;;;;;;;;;;;;4936092;29;7112;-58
2022/08/07 14:42:37;;;;;;;;;;;;;;;;;;4936293;29;7698;-58
2022/08/07 14:45:13;;;;;;;;;;;;;;;;;;4920100;29;7067;-57
2022/08/07 14:47:41;;;;;;;;;;;;;;;;;;4932805;28;8698;-57
2022/08/07 14:50:25;;;;;;;;;;;;;;;;;;4954953;28;7267;-57
2022/08/07 14:52:53;;;;;;;;;;;;;;;;;;4955200;28;8061;-57
2022/08/07 14:55:33;;;;;;;;;;;;;;;;;;4955325;28;7470;-56
2022/08/07 14:58:01;;;;;;;;;;;;;;;;;;4955024;28;7179;-57
2022/08/07 15:03:31;;;;;;;;;;;;;;;;;;4928157;28;6995;-54
2022/08/07 15:05:58;;;;;;;;;;;;;;;;;;4915977;29;7474;-59
2022/08/07 15:08:30;;;;;;;;;;;;;;;;;;4916105;29;7438;-60
2022/08/07 15:10:58;;;;;;;;;;;;;;;;;;4915898;29;7237;-64
2022/08/07 15:13:26;;;;;;;;;;;;;;;;;;4916193;29;7458;-63
2022/08/07 15:22:01;;;;;;;;;;;;;;;;;;4914818;28;7149;-60
2022/08/07 15:24:32;;;;;;;;;;;;;;;;;;4915762;29;7427;-62
2022/08/07 15:27:08;;;;;;;;;;;;;;;;;;4915692;29;7585;-62
2022/08/07 15:29:38;;;;;;;;;;;;;;;;;;4915917;29;7083;-60
2022/08/07 15:38:19;;;;;;;;;;;;;;;;;;4915547;29;6964;-63
2022/08/07 15:40:47;;;;;;;;;;;;;;;;;;4915167;29;7139;-59
2022/08/07 15:49:25;;;;;;;;;;;;;;;;;;4915535;29;6970;-67
2022/08/07 15:51:54;;;;;;;;;;;;;;;;;;4915453;29;7360;-59
2022/08/07 15:54:25;;;;;;;;;;;;;;;;;;4915360;29;7055;-65
2022/08/07 15:56:51;;;;;;;;;;;;;;;;;;4915410;29;7162;-69
2022/08/07 15:59:24;;;;;;;;;;;;;;;;;;4915584;29;7251;-63
2022/08/07 16:02:01;;;;;;;;;;;;;;;;;;4915493;29;7468;-59
2022/08/07 16:04:30;;;;;;;;;;;;;;;;;;4915525;28;7464;-62
2022/08/07 16:06:58;;;;;;;;;;;;;;;;;;4915492;29;7239;-57
2022/08/07 16:09:41;;;;;;;;;;;;;;;;;;4915138;29;7044;-60
2022/08/07 16:15:47;;;;;;;;;;;;;;;;;;4915339;29;6978;-59
2022/08/07 16:18:18;;;;;;;;;;;;;;;;;;4915429;28;7334;-63
2022/08/07 16:21:00;;;;;;;;;;;;;;;;;;4922392;28;7453;-58
2022/08/07 16:23:46;;;;;;;;;;;;;;;;;;4934660;29;7223;-63
2022/08/07 16:26:24;;;;;;;;;;;;;;;;;;4916164;28;7476;-63
2022/08/07 16:29:15;;;;;;;;;;;;;;;;;;4911467;28;7335;-58
2022/08/07 16:31:59;;;;;;;;;;;;;;;;;;4903044;29;7199;-63
2022/08/07 16:37:46;;;;;;;;;;;;;;;;;;4916799;29;6741;-59
2022/08/07 16:43:44;;;;;;;;;;;;;;;;;;4918021;29;7009;-59
2022/08/07 16:46:15;;;;;;;;;;;;;;;;;;4917193;28;7379;-59
2022/08/07 16:48:59;;;;;;;;;;;;;;;;;;4917393;28;7077;-59
2022/08/07 16:51:52;;;;;;;;;;;;;;;;;;4917509;28;7114;-60
2022/08/07 16:54:20;;;;;;;;;;;;;;;;;;4983584;28;7089;-60
2022/08/07 16:57:04;;;;;;;;;;;;;;;;;;4916736;28;7206;-60
2022/08/07 16:59:58;;;;;;;;;;;;;;;;;;4917427;28;7233;-60
2022/08/07 17:02:23;;;;;;;;;;;;;;;;;;4916868;28;8635;-60
2022/08/07 17:05:13;;;;;;;;;;;;;;;;;;4917129;29;7047;-60
2022/08/07 17:07:56;;;;;;;;;;;;;;;;;;4916500;29;6975;-60
2022/08/07 17:10:44;;;;;;;;;;;;;;;;;;4916470;28;7486;-60
2022/08/07 17:13:18;;;;;;;;;;;;;;;;;;4899116;28;7316;-60
2022/08/07 17:15:56;;;;;;;;;;;;;;;;;;4917697;28;7362;-60
2022/08/07 17:18:45;;;;;;;;;;;;;;;;;;4917280;28;7219;-60
2022/08/07 17:21:20;;;;;;;;;;;;;;;;;;4917503;28;7278;-60
2022/08/07 17:23:45;;;;;;;;;;;;;;;;;;4917753;29;7444;-60
2022/08/07 17:29:46;;;;;;;;;;;;;;;;;;4917375;29;6727;-60
2022/08/07 17:32:11;;;;;;;;;;;;;;;;;;4917569;29;7105;-60
2022/08/07 17:34:41;;;;;;;;;;;;;;;;;;4917759;28;7128;-60
2022/08/07 17:40:09;;;;;;;;;;;;;;;;;;4917348;29;6965;-61
2022/08/07 17:42:34;;;;;;;;;;;;;;;;;;4917443;29;7213;-61
2022/08/07 17:45:03;;;;;;;;;;;;;;;;;;4917004;28;7108;-61
2022/08/07 17:47:30;;;;;;;;;;;;;;;;;;4916970;29;7958;-61
2022/08/07 17:49:59;;;;;;;;;;;;;;;;;;4917479;29;7216;-61
2022/08/07 17:55:31;;;;;;;;;;;;;;;;;;4917087;29;6980;-61
2022/08/07 18:01:20;;;;;;;;;;;;;;;;;;4917108;29;6744;-61
2022/08/07 18:10:23;;;;;;;;;;;;;;;;;;4916687;29;6961;-61
2022/08/07 18:16:27;;;;;;;;;;;;;;;;;;4916821;29;7016;-61
2022/08/07 18:22:02;;;;;;;;;;;;;;;;;;4955782;28;6716;-61
2022/08/07 18:33:47;;;;;;;;;;;;;;;;;;4955848;28;7062;-61
2022/08/07 18:36:17;;;;;;;;;;;;;;;;;;4955961;28;7268;-61
2022/08/07 18:38:58;;;;;;;;;;;;;;;;;;4955428;28;7400;-61
2022/08/07 18:41:32;;;;;;;;;;;;;;;;;;4955629;28;7165;-61
2022/08/07 18:44:16;;;;;;;;;;;;;;;;;;4955701;28;7525;-61
2022/08/07 18:46:46;;;;;;;;;;;;;;;;;;4955825;28;7161;-61
2022/08/07 18:49:22;;;;;;;;;;;;;;;;;;4955474;28;7282;-61
2022/08/07 18:51:50;;;;;;;;;;;;;;;;;;4955310;28;7153;-61
2022/08/07 18:54:42;;;;;;;;;;;;;;;;;;4930780;28;7178;-61
2022/08/07 19:00:32;;;;;;;;;;;;;;;;;;4897565;29;6813;-61
2022/08/07 19:03:03;;;;;;;;;;;;;;;;;;4897645;29;7149;-61
2022/08/07 19:15:01;;;;;;;;;;;;;;;;;;4897756;29;6703;-61
2022/08/07 19:20:33;;;;;;;;;;;;;;;;;;4900409;28;6808;-61
2022/08/07 19:23:07;;;;;;;;;;;;;;;;;;4915833;29;7080;-61
2022/08/07 19:25:35;;;;;;;;;;;;;;;;;;4916008;29;7520;-61
2022/08/07 19:28:02;;;;;;;;;;;;;;;;;;4915510;29;7382;-61
2022/08/07 19:30:33;;;;;;;;;;;;;;;;;;4915476;29;7095;-61
2022/08/07 19:36:03;;;;;;;;;;;;;;;;;;4915764;29;6695;-61
2022/08/07 19:38:33;;;;;;;;;;;;;;;;;;4916146;29;6981;-61
2022/08/07 19:40:59;;;;;;;;;;;;;;;;;;4916049;28;6838;-61
2022/08/07 19:43:28;;;;;;;;;;;;;;;;;;4915866;29;6945;-61
2022/08/07 19:46:13;;;;;;;;;;;;;;;;;;4898459;29;7239;-61
2022/08/07 19:48:43;;;;;;;;;;;;;;;;;;4915625;29;7204;-61
2022/08/07 19:51:10;;;;;;;;;;;;;;;;;;4915823;29;7121;-61
2022/08/07 19:53:35;;;;;;;;;;;;;;;;;;4915453;29;7166;-61
2022/08/07 19:56:08;;;;;;;;;;;;;;;;;;4915570;28;6948;-61
2022/08/07 19:58:36;;;;;;;;;;;;;;;;;;4936899;28;6965;-61
2022/08/07 20:01:03;;;;;;;;;;;;;;;;;;4957983;28;7040;-58
2022/08/07 20:03:31;;;;;;;;;;;;;;;;;;4947934;28;7614;-58
2022/08/07 20:06:06;;;;;;;;;;;;;;;;;;4983055;28;7223;-59
2022/08/07 20:08:36;;;;;;;;;;;;;;;;;;4983623;28;7609;-58
2022/08/07 20:11:26;;;;;;;;;;;;;;;;;;4989427;28;7228;-59
2022/08/07 20:14:04;;;;;;;;;;;;;;;;;;4915445;29;7029;-58
2022/08/07 20:16:32;;;;;;;;;;;;;;;;;;4915287;28;7282;-58
2022/08/07 20:19:06;;;;;;;;;;;;;;;;;;4914975;29;7780;-58
2022/08/07 20:21:48;;;;;;;;;;;;;;;;;;4980606;28;8430;-58
2022/08/07 20:24:18;;;;;;;;;;;;;;;;;;4914907;29;7170;-58
2022/08/07 20:26:51;;;;;;;;;;;;;;;;;;4915269;28;7242;-58
2022/08/07 20:29:21;;;;;;;;;;;;;;;;;;4915196;28;7157;-58
2022/08/07 20:35:00;;;;;;;;;;;;;;;;;;4915121;29;7000;-58
2022/08/07 20:37:32;;;;;;;;;;;;;;;;;;4915070;29;7168;-58
2022/08/07 20:46:08;;;;;;;;;;;;;;;;;;4915177;29;6700;-58
2022/08/07 20:48:36;;;;;;;;;;;;;;;;;;4915003;29;7111;-58
2022/08/07 20:51:04;;;;;;;;;;;;;;;;;;4914839;28;7232;-58
2022/08/07 20:53:37;;;;;;;;;;;;;;;;;;4915202;28;6973;-59
2022/08/07 20:56:33;;;;;;;;;;;;;;;;;;4915080;29;7057;-59
2022/08/07 20:59:01;;;;;;;;;;;;;;;;;;4914954;29;7320;-58
2022/08/07 21:04:53;;;;;;;;;;;;;;;;;;4914759;29;6692;-59
2022/08/07 21:07:19;;;;;;;;;;;;;;;;;;4914811;29;7569;-59
2022/08/07 21:09:45;;;;;;;;;;;;;;;;;;4914539;29;7310;-58
2022/08/07 21:12:15;;;;;;;;;;;;;;;;;;4918625;28;6842;-58
2022/08/07 21:14:43;;;;;;;;;;;;;;;;;;4985276;28;7254;-57
2022/08/07 21:17:10;;;;;;;;;;;;;;;;;;4993617;28;6941;-58
2022/08/07 21:19:40;;;;;;;;;;;;;;;;;;4996149;28;7185;-58
2022/08/07 21:22:08;;;;;;;;;;;;;;;;;;4996257;28;7129;-58
2022/08/07 21:30:41;;;;;;;;;;;;;;;;;;4913190;29;7738;-58
2022/08/07 21:33:41;;;;;;;;;;;;;;;;;;4949247;28;7218;-58
2022/08/07 21:36:13;;;;;;;;;;;;;;;;;;4985186;28;7241;-58
2022/08/07 21:38:42;;;;;;;;;;;;;;;;;;4917601;29;7145;-58
2022/08/07 21:41:29;;;;;;;;;;;;;;;;;;4917519;28;7446;-58
2022/08/07 21:47:30;;;;;;;;;;;;;;;;;;4917336;29;7396;-58
2022/08/07 21:50:03;;;;;;;;;;;;;;;;;;4917587;29;7294;-59
2022/08/07 21:55:51;;;;;;;;;;;;;;;;;;4917415;29;6943;-59
2022/08/07 21:58:29;;;;;;;;;;;;;;;;;;4917933;28;6974;-59
2022/08/07 22:01:13;;;;;;;;;;;;;;;;;;4917532;28;7227;-58
2022/08/07 22:03:42;;;;;;;;;;;;;;;;;;4917395;29;7143;-58
2022/08/07 22:12:16;;;;;;;;;;;;;;;;;;4917113;29;6685;-58
2022/08/07 22:18:05;;;;;;;;;;;;;;;;;;4916927;29;6721;-58
2022/08/07 22:23:33;;;;;;;;;;;;;;;;;;4917657;29;6970;-59
2022/08/07 22:26:24;;;;;;;;;;;;;;;;;;4917592;29;7137;-59
2022/08/07 22:28:50;;;;;;;;;;;;;;;;;;4917826;29;7220;-58
2022/08/07 22:34:14;;;;;;;;;;;;;;;;;;4917795;29;6963;-58
2022/08/07 22:42:44;;;;;;;;;;;;;;;;;;4916940;29;6933;-58
2022/08/07 22:45:16;;;;;;;;;;;;;;;;;;4916627;29;7138;-58
2022/08/07 22:48:02;;;;;;;;;;;;;;;;;;4917052;29;7120;-58
2022/08/07 22:50:40;;;;;;;;;;;;;;;;;;4909317;29;7453;-58
2022/08/07 22:53:38;;;;;;;;;;;;;;;;;;4916544;28;7202;-58
2022/08/07 22:56:08;;;;;;;;;;;;;;;;;;4916958;28;7295;-58
2022/08/07 22:58:42;;;;;;;;;;;;;;;;;;4916451;29;7131;-58
2022/08/07 23:04:21;;;;;;;;;;;;;;;;;;4916752;29;7003;-58
2022/08/07 23:07:05;;;;;;;;;;;;;;;;;;4916446;28;7231;-59
2022/08/07 23:09:31;;;;;;;;;;;;;;;;;;4916417;29;7354;-58
2022/08/07 23:11:56;;;;;;;;;;;;;;;;;;4916397;28;7053;-58
2022/08/07 23:14:50;;;;;;;;;;;;;;;;;;4916421;29;7411;-59
2022/08/07 23:17:25;;;;;;;;;;;;;;;;;;4916285;29;6826;-58
2022/08/07 23:20:22;;;;;;;;;;;;;;;;;;4916216;29;6941;-58
2022/08/07 23:26:13;;;;;;;;;;;;;;;;;;4916385;29;6694;-58
2022/08/07 23:41:14;;;;;;;;;;;;;;;;;;4915558;29;7565;-58
2022/08/07 23:56:08;;;;;;;;;;;;;;;;;;4916186;29;6940;-59
2022/08/07 23:59:05;;;;;;;;;;;;;;;;;;4915734;28;7044;-58
